createdAt,value
2019-01-11T00:01:14.192Z,-3.12
2019-01-11T00:03:40.037Z,-3.15
2019-01-11T00:06:05.866Z,-3.10
2019-01-11T00:08:31.721Z,-3.00
2019-01-11T00:10:57.560Z,-3.00
2019-01-11T00:13:23.532Z,-2.98
2019-01-11T00:15:49.411Z,-3.00
2019-01-11T00:18:15.240Z,-3.03
2019-01-11T00:20:41.426Z,-3.08
2019-01-11T00:23:07.401Z,-3.03
2019-01-11T00:25:33.322Z,-3.01
2019-01-11T00:27:59.241Z,-3.09
2019-01-11T00:30:25.063Z,-3.15
2019-01-11T00:32:50.900Z,-2.95
2019-01-11T00:35:17.074Z,-2.92
2019-01-11T00:37:42.889Z,-2.80
2019-01-11T00:40:08.714Z,-2.91
2019-01-11T00:42:34.546Z,-2.87
2019-01-11T00:45:00.558Z,-3.02
2019-01-11T00:47:26.496Z,-2.98
2019-01-11T00:49:52.303Z,-3.09
2019-01-11T00:52:18.126Z,-3.18
2019-01-11T00:54:43.935Z,-3.11
2019-01-11T00:57:09.760Z,-3.30
2019-01-11T00:59:35.582Z,-3.23
2019-01-11T01:02:01.438Z,-3.29
2019-01-11T01:04:27.276Z,-3.33
2019-01-11T01:06:53.105Z,-3.36
2019-01-11T01:09:18.932Z,-3.19
2019-01-11T01:11:44.860Z,-3.19
2019-01-11T01:14:10.696Z,-3.07
2019-01-11T01:16:36.553Z,-3.21
2019-01-11T01:19:02.563Z,-3.24
2019-01-11T01:21:28.430Z,-3.19
2019-01-11T01:23:54.407Z,-3.00
2019-01-11T01:26:20.242Z,-3.07
2019-01-11T01:28:46.095Z,-2.95
2019-01-11T01:31:11.890Z,-3.03
2019-01-11T01:33:37.852Z,-3.08
2019-01-11T01:36:03.750Z,-3.03
2019-01-11T01:38:29.604Z,-2.80
2019-01-11T01:40:55.452Z,-2.88
2019-01-11T01:43:21.272Z,-2.67
2019-01-11T01:45:47.109Z,-2.54
2019-01-11T01:48:12.925Z,-2.47
2019-01-11T01:50:38.784Z,-2.53
2019-01-11T01:53:04.605Z,-2.74
2019-01-11T01:55:30.445Z,-2.85
2019-01-11T01:57:56.307Z,-2.80
2019-01-11T02:00:22.169Z,-2.86
2019-01-11T02:02:47.985Z,-2.86
2019-01-11T02:05:14.112Z,-2.86
2019-01-11T02:07:39.992Z,-2.59
2019-01-11T02:10:08.708Z,-2.71
2019-01-11T02:12:34.613Z,-2.86
2019-01-11T02:15:00.476Z,-2.95
2019-01-11T02:17:27.184Z,-2.95
2019-01-11T02:19:53.038Z,-2.97
2019-01-11T02:22:18.961Z,-2.91
2019-01-11T02:24:44.788Z,-2.92
2019-01-11T02:27:10.693Z,-2.89
2019-01-11T02:29:36.528Z,-2.82
2019-01-11T02:32:02.354Z,-2.79
2019-01-11T02:34:28.191Z,-2.89
2019-01-11T02:36:54.035Z,-2.86
2019-01-11T02:39:19.956Z,-2.95
2019-01-11T02:41:45.907Z,-2.86
2019-01-11T02:44:11.736Z,-2.78
2019-01-11T02:46:37.559Z,-2.73
2019-01-11T02:49:03.369Z,-2.70
2019-01-11T02:51:29.186Z,-2.54
2019-01-11T02:53:55.017Z,-2.59
2019-01-11T02:56:20.838Z,-2.53
2019-01-11T02:58:46.684Z,-2.42
2019-01-11T03:01:12.524Z,-2.47
2019-01-11T03:03:38.353Z,-2.55
2019-01-11T03:06:04.269Z,-2.68
2019-01-11T03:08:30.078Z,-2.79
2019-01-11T03:10:55.949Z,-2.86
2019-01-11T03:13:21.732Z,-2.91
2019-01-11T03:15:47.576Z,-2.98
2019-01-11T03:18:13.418Z,-2.88
2019-01-11T03:20:39.253Z,-2.78
2019-01-11T03:23:05.070Z,-2.72
2019-01-11T03:25:30.925Z,-2.69
2019-01-11T03:27:56.771Z,-2.66
2019-01-11T03:30:22.624Z,-2.72
2019-01-11T03:32:48.464Z,-2.73
2019-01-11T03:35:14.978Z,-2.58
2019-01-11T03:37:41.115Z,-2.52
2019-01-11T03:40:10.145Z,-2.41
2019-01-11T03:42:35.992Z,-2.36
2019-01-11T03:45:03.610Z,-2.41
2019-01-11T03:47:29.469Z,-2.41
2019-01-11T03:49:55.290Z,-2.26
2019-01-11T03:52:21.256Z,-2.21
2019-01-11T03:54:47.055Z,-2.20
2019-01-11T03:57:12.894Z,-2.28
2019-01-11T03:59:38.722Z,-2.33
2019-01-11T04:02:04.575Z,-2.36
2019-01-11T04:04:30.451Z,-2.32
2019-01-11T04:06:56.254Z,-2.30
2019-01-11T04:09:22.095Z,-2.29
2019-01-11T04:11:47.912Z,-2.28
2019-01-11T04:14:13.784Z,-2.36
2019-01-11T04:16:39.600Z,-2.45
2019-01-11T04:19:06.972Z,-2.23
2019-01-11T04:21:32.812Z,-2.50
2019-01-11T04:23:58.699Z,-2.29
2019-01-11T04:26:24.530Z,-2.24
2019-01-11T04:28:50.477Z,-2.25
2019-01-11T04:31:16.348Z,-2.29
2019-01-11T04:33:42.169Z,-2.39
2019-01-11T04:36:08.009Z,-2.27
2019-01-11T04:38:33.842Z,-2.33
2019-01-11T04:40:59.693Z,-2.36
2019-01-11T04:43:25.501Z,-2.40
2019-01-11T04:45:51.355Z,-2.33
2019-01-11T04:48:17.172Z,-2.40
2019-01-11T04:50:42.989Z,-2.48
2019-01-11T04:53:08.816Z,-2.45
2019-01-11T04:55:34.662Z,-2.37
2019-01-11T04:58:00.480Z,-2.34
2019-01-11T05:00:26.288Z,-2.36
2019-01-11T05:02:52.225Z,-2.35
2019-01-11T05:05:18.131Z,-2.28
2019-01-11T05:07:43.972Z,-2.27
2019-01-11T05:10:12.685Z,-2.29
2019-01-11T05:12:38.604Z,-2.29
2019-01-11T05:15:05.412Z,-2.31
2019-01-11T05:17:31.258Z,-2.39
2019-01-11T05:19:57.256Z,-2.45
2019-01-11T05:22:23.230Z,-2.45
2019-01-11T05:24:49.084Z,-2.36
2019-01-11T05:27:14.939Z,-2.42
2019-01-11T05:29:40.741Z,-2.41
2019-01-11T05:32:06.560Z,-2.43
2019-01-11T05:34:32.491Z,-2.42
2019-01-11T05:36:58.312Z,-2.45
2019-01-11T05:39:24.257Z,-2.39
2019-01-11T05:41:50.085Z,-2.39
2019-01-11T05:44:16.110Z,-2.40
2019-01-11T05:46:41.935Z,-2.43
2019-01-11T05:49:07.784Z,-2.38
2019-01-11T05:51:33.603Z,-2.38
2019-01-11T05:53:59.437Z,-2.38
2019-01-11T05:56:25.245Z,-2.42
2019-01-11T05:58:52.992Z,-2.50
2019-01-11T06:01:18.828Z,-2.49
2019-01-11T06:03:44.647Z,-2.49
2019-01-11T06:06:10.781Z,-2.51
2019-01-11T06:08:36.597Z,-2.54
2019-01-11T06:11:02.427Z,-2.55
2019-01-11T06:13:28.372Z,-2.60
2019-01-11T06:15:54.624Z,-2.59
2019-01-11T06:18:20.439Z,-2.57
2019-01-11T06:20:46.277Z,-2.51
2019-01-11T06:23:12.100Z,-2.50
2019-01-11T06:25:38.050Z,-2.53
2019-01-11T06:28:03.907Z,-2.51
2019-01-11T06:30:29.849Z,-2.49
2019-01-11T06:32:55.771Z,-2.49
2019-01-11T06:35:21.613Z,-2.47
2019-01-11T06:37:47.432Z,-2.48
2019-01-11T06:40:13.278Z,-3.10
2019-01-11T06:42:39.115Z,-2.48
2019-01-11T06:45:07.951Z,-2.43
2019-01-11T06:47:33.804Z,-2.38
2019-01-11T06:49:59.628Z,-2.44
2019-01-11T06:52:25.457Z,-2.48
2019-01-11T06:54:51.342Z,-2.40
2019-01-11T06:57:17.217Z,-2.42
2019-01-11T06:59:43.049Z,-2.35
2019-01-11T07:02:09.332Z,-2.41
2019-01-11T07:04:35.165Z,-2.44
2019-01-11T07:07:01.134Z,-2.48
2019-01-11T07:09:26.957Z,-2.52
2019-01-11T07:11:52.887Z,-2.54
2019-01-11T07:14:18.815Z,-2.59
2019-01-11T07:16:44.669Z,-2.56
2019-01-11T07:19:10.528Z,-2.58
2019-01-11T07:21:36.688Z,-2.58
2019-01-11T07:24:02.766Z,-2.61
2019-01-11T07:26:28.578Z,-2.67
2019-01-11T07:28:54.425Z,-2.74
2019-01-11T07:31:20.261Z,-2.75
2019-01-11T07:33:46.122Z,-2.75
2019-01-11T07:36:17.175Z,-2.72
2019-01-11T07:38:43.008Z,-2.63
2019-01-11T07:41:08.954Z,-2.65
2019-01-11T07:43:34.832Z,-2.69
2019-01-11T07:46:01.460Z,-2.70
2019-01-11T07:48:27.310Z,-2.75
2019-01-11T07:50:53.146Z,-2.76
2019-01-11T07:53:18.962Z,-2.75
2019-01-11T07:55:44.852Z,-2.74
2019-01-11T07:58:10.690Z,-2.73
2019-01-11T08:00:36.535Z,-2.73
2019-01-11T08:03:02.533Z,-2.75
2019-01-11T08:05:28.370Z,-2.74
2019-01-11T08:07:54.287Z,-2.73
2019-01-11T08:10:20.153Z,-2.74
2019-01-11T08:12:45.971Z,-2.72
2019-01-11T08:15:15.513Z,-2.65
2019-01-11T08:17:41.349Z,-2.56
2019-01-11T08:20:07.578Z,-2.51
2019-01-11T08:22:35.324Z,-2.55
2019-01-11T08:25:03.342Z,-2.48
2019-01-11T08:27:29.186Z,-2.51
2019-01-11T08:29:55.005Z,-2.51
2019-01-11T08:32:20.881Z,-2.51
2019-01-11T08:34:46.776Z,-2.46
2019-01-11T08:37:13.090Z,-2.37
2019-01-11T08:39:38.934Z,-2.29
2019-01-11T08:42:04.951Z,-2.39
2019-01-11T08:44:30.880Z,-2.35
2019-01-11T08:46:56.725Z,-2.37
2019-01-11T08:49:22.572Z,-2.37
2019-01-11T08:51:48.413Z,-2.44
2019-01-11T08:54:14.251Z,-2.51
2019-01-11T08:56:40.064Z,-2.49
2019-01-11T08:59:05.962Z,-2.46
2019-01-11T09:01:31.792Z,-2.43
2019-01-11T09:03:57.637Z,-2.40
2019-01-11T09:06:23.840Z,-2.37
2019-01-11T09:08:49.661Z,-2.39
2019-01-11T09:11:15.515Z,-2.36
2019-01-11T09:13:41.325Z,-2.44
2019-01-11T09:16:07.149Z,-2.44
2019-01-11T09:18:34.887Z,-2.38
2019-01-11T09:21:00.934Z,-2.33
2019-01-11T09:23:26.953Z,-2.42
2019-01-11T09:25:52.803Z,-2.40
2019-01-11T09:28:18.612Z,-2.36
2019-01-11T09:30:44.440Z,-2.31
2019-01-11T09:33:10.272Z,-2.26
2019-01-11T09:35:36.108Z,-2.21
2019-01-11T09:38:01.935Z,-2.28
2019-01-11T09:40:27.777Z,-2.32
2019-01-11T09:42:53.717Z,-2.29
2019-01-11T09:45:19.531Z,-2.26
2019-01-11T09:47:45.795Z,-2.26
2019-01-11T09:50:11.953Z,-2.23
2019-01-11T09:52:37.790Z,-2.17
2019-01-11T09:55:05.049Z,-2.11
2019-01-11T09:57:30.910Z,-2.05
2019-01-11T09:59:56.774Z,-2.07
2019-01-11T10:02:24.550Z,-2.03
2019-01-11T10:04:50.321Z,-2.04
2019-01-11T10:07:26.740Z,-2.07
2019-01-11T10:09:52.598Z,-2.11
2019-01-11T10:12:18.443Z,-2.19
2019-01-11T10:14:44.479Z,-2.18
2019-01-11T10:17:10.285Z,-2.15
2019-01-11T10:19:36.118Z,-2.13
2019-01-11T10:22:02.045Z,-2.11
2019-01-11T10:24:27.906Z,-2.11
2019-01-11T10:26:53.716Z,-2.17
2019-01-11T10:29:19.554Z,-2.16
2019-01-11T10:31:45.473Z,-2.12
2019-01-11T10:34:11.331Z,-2.10
2019-01-11T10:36:37.156Z,-2.11
2019-01-11T10:39:05.612Z,-2.08
2019-01-11T10:41:31.524Z,-1.98
2019-01-11T10:43:57.349Z,-1.94
2019-01-11T10:46:33.102Z,-1.92
2019-01-11T10:48:58.934Z,-1.90
2019-01-11T10:51:28.251Z,-1.89
2019-01-11T10:53:52.994Z,-1.95
2019-01-11T10:56:18.816Z,-1.92
2019-01-11T10:58:44.756Z,-1.91
2019-01-11T11:01:10.606Z,-1.85
2019-01-11T11:03:36.445Z,-1.90
2019-01-11T11:06:02.292Z,-1.79
2019-01-11T11:08:28.135Z,-1.71
2019-01-11T11:10:54.028Z,-1.69
2019-01-11T11:13:19.871Z,-1.80
2019-01-11T11:15:47.144Z,-1.66
2019-01-11T11:18:12.964Z,-1.60
2019-01-11T11:20:38.800Z,-1.57
2019-01-11T11:23:04.630Z,-1.56
2019-01-11T11:25:30.576Z,-1.62
2019-01-11T11:27:56.419Z,-1.75
2019-01-11T11:30:22.352Z,-1.73
2019-01-11T11:32:50.086Z,-1.70
2019-01-11T11:35:15.924Z,-1.77
2019-01-11T11:37:41.764Z,-1.72
2019-01-11T11:40:07.991Z,-1.71
2019-01-11T11:42:33.835Z,-1.74
2019-01-11T11:44:59.639Z,-1.64
2019-01-11T11:47:25.447Z,-1.74
2019-01-11T11:49:51.319Z,-1.65
2019-01-11T11:52:17.185Z,-1.59
2019-01-11T11:54:43.031Z,-1.57
2019-01-11T11:57:08.852Z,-1.60
2019-01-11T11:59:34.703Z,-1.62
2019-01-11T12:02:00.534Z,-1.53
2019-01-11T12:04:26.373Z,-1.53
2019-01-11T12:06:52.252Z,-1.54
2019-01-11T12:09:18.126Z,-1.56
2019-01-11T12:11:43.945Z,-1.57
2019-01-11T12:14:09.787Z,-1.56
2019-01-11T12:16:35.615Z,-1.56
2019-01-11T12:19:01.464Z,-1.54
2019-01-11T12:21:27.324Z,-1.45
2019-01-11T12:23:53.169Z,-1.39
2019-01-11T12:26:19.774Z,-1.34
2019-01-11T12:28:45.627Z,-1.44
2019-01-11T12:31:11.651Z,-1.41
2019-01-11T12:33:37.477Z,-1.37
2019-01-11T12:36:03.318Z,-1.32
2019-01-11T12:38:29.147Z,-1.31
2019-01-11T12:40:55.042Z,-1.29
2019-01-11T12:43:20.866Z,-1.24
2019-01-11T12:45:46.697Z,-1.21
2019-01-11T12:48:12.515Z,-1.30
2019-01-11T12:50:38.354Z,-1.34
2019-01-11T12:53:04.288Z,-1.45
2019-01-11T12:55:30.225Z,-1.50
2019-01-11T12:57:56.023Z,-1.50
2019-01-11T13:00:21.855Z,-1.52
2019-01-11T13:02:47.708Z,-1.48
2019-01-11T13:05:16.124Z,-1.46
2019-01-11T13:07:41.952Z,-1.48
2019-01-11T13:10:10.800Z,-1.54
2019-01-11T13:12:36.847Z,-1.53
2019-01-11T13:15:09.154Z,-1.55
2019-01-11T13:17:35.069Z,-1.51
2019-01-11T13:20:00.890Z,-1.45
2019-01-11T13:22:26.818Z,-1.43
2019-01-11T13:24:52.638Z,-1.43
2019-01-11T13:27:18.485Z,-1.42
2019-01-11T13:29:44.309Z,-1.42
2019-01-11T13:32:10.158Z,-1.40
2019-01-11T13:34:35.982Z,-1.42
2019-01-11T13:37:01.923Z,-1.46
2019-01-11T13:39:27.737Z,-1.40
2019-01-11T13:41:53.584Z,-1.84
2019-01-11T13:44:19.444Z,-1.40
2019-01-11T13:46:45.257Z,-1.41
2019-01-11T13:49:11.114Z,-1.31
2019-01-11T13:51:37.027Z,-1.33
2019-01-11T13:54:03.350Z,-1.39
2019-01-11T13:56:29.194Z,-1.40
2019-01-11T13:58:55.044Z,-1.38
2019-01-11T14:01:20.887Z,-1.38
2019-01-11T14:03:46.681Z,-1.41
2019-01-11T14:06:12.508Z,-1.37
2019-01-11T14:08:38.337Z,-1.26
2019-01-11T14:11:04.192Z,-1.31
2019-01-11T14:13:30.082Z,-1.33
2019-01-11T14:15:55.954Z,-1.32
2019-01-11T14:18:21.828Z,-1.29
2019-01-11T14:20:47.786Z,-1.36
2019-01-11T14:23:13.617Z,-1.42
2019-01-11T14:25:39.485Z,-1.41
2019-01-11T14:28:05.348Z,-1.51
2019-01-11T14:30:31.198Z,-1.53
2019-01-11T14:32:57.015Z,-1.54
2019-01-11T14:35:22.979Z,-1.56
2019-01-11T14:37:48.814Z,-1.57
2019-01-11T14:40:15.164Z,-1.48
2019-01-11T14:42:41.109Z,-1.43
2019-01-11T14:45:09.749Z,-1.42
2019-01-11T14:47:35.609Z,-1.43
2019-01-11T14:50:03.164Z,-2.07
2019-01-11T14:52:29.013Z,-1.47
2019-01-11T14:54:54.827Z,-1.45
2019-01-11T14:57:20.775Z,-1.47
2019-01-11T14:59:46.646Z,-1.44
2019-01-11T15:02:12.488Z,-1.41
2019-01-11T15:04:38.532Z,-1.48
2019-01-11T15:07:04.407Z,-1.49
2019-01-11T15:09:30.293Z,-1.51
2019-01-11T15:11:56.187Z,-1.46
2019-01-11T15:14:22.018Z,-1.44
2019-01-11T15:16:48.096Z,-1.46
2019-01-11T15:19:15.656Z,-1.50
2019-01-11T15:21:41.621Z,-1.52
2019-01-11T15:24:07.464Z,-1.56
2019-01-11T15:26:33.315Z,-1.56
2019-01-11T15:28:59.191Z,-1.56
2019-01-11T15:31:25.029Z,-1.58
2019-01-11T15:33:50.891Z,-1.56
2019-01-11T15:36:16.748Z,-1.59
2019-01-11T15:38:42.902Z,-1.56
2019-01-11T15:41:08.842Z,-1.52
2019-01-11T15:43:34.681Z,-1.55
2019-01-11T15:46:00.914Z,-1.53
2019-01-11T15:48:44.534Z,-1.50
2019-01-11T15:51:10.687Z,-1.51
2019-01-11T15:53:36.762Z,-1.53
2019-01-11T15:56:04.274Z,-1.53
2019-01-11T15:58:30.384Z,-1.50
2019-01-11T16:00:56.211Z,-1.48
2019-01-11T16:03:22.056Z,-1.50
2019-01-11T16:05:51.728Z,-1.38
2019-01-11T16:08:17.584Z,-1.40
2019-01-11T16:11:08.052Z,-1.43
2019-01-11T16:13:37.604Z,-1.45
2019-01-11T16:16:06.562Z,-1.49
2019-01-11T16:18:32.415Z,-1.50
2019-01-11T16:20:58.268Z,-1.53
2019-01-11T16:23:24.234Z,-1.47
2019-01-11T16:25:50.089Z,-1.47
2019-01-11T16:28:16.018Z,-1.44
2019-01-11T16:30:41.936Z,-1.45
2019-01-11T16:33:07.748Z,-1.43
2019-01-11T16:35:33.566Z,-1.44
2019-01-11T16:37:59.424Z,-1.44
2019-01-11T16:40:25.264Z,-1.43
2019-01-11T16:42:51.121Z,-1.45
2019-01-11T16:45:17.069Z,-1.49
2019-01-11T16:47:43.007Z,-1.45
2019-01-11T16:50:17.146Z,-1.44
2019-01-11T16:52:46.409Z,-1.42
2019-01-11T16:55:11.022Z,-1.38
2019-01-11T16:57:36.930Z,-1.41
2019-01-11T17:00:09.801Z,-1.33
2019-01-11T17:02:36.741Z,-1.40
2019-01-11T17:05:05.675Z,-1.40
2019-01-11T17:07:31.506Z,-1.38
2019-01-11T17:09:57.356Z,-1.43
2019-01-11T17:12:23.181Z,-1.35
2019-01-11T17:14:49.032Z,-1.32
2019-01-11T17:17:15.374Z,-1.33
2019-01-11T17:19:41.224Z,-1.39
2019-01-11T17:22:07.058Z,-1.37
2019-01-11T17:24:32.899Z,-1.39
2019-01-11T17:26:58.708Z,-1.38
2019-01-11T17:29:24.561Z,-1.33
2019-01-11T17:31:50.390Z,-1.36
2019-01-11T17:34:16.219Z,-1.35
2019-01-11T17:36:42.056Z,-1.35
2019-01-11T17:39:08.010Z,-1.34
2019-01-11T17:41:33.821Z,-1.33
2019-01-11T17:43:59.662Z,-1.34
2019-01-11T17:46:25.487Z,-1.32
2019-01-11T17:48:51.302Z,-1.33
2019-01-11T17:51:17.134Z,-1.35
2019-01-11T17:53:42.985Z,-1.21
2019-01-11T17:56:08.817Z,-1.25
2019-01-11T17:58:35.865Z,-1.26
2019-01-11T18:01:01.696Z,-1.29
2019-01-11T18:03:27.556Z,-1.31
2019-01-11T18:05:53.409Z,-1.38
2019-01-11T18:08:19.236Z,-1.32
2019-01-11T18:10:45.103Z,-1.32
2019-01-11T18:13:10.966Z,-1.29
2019-01-11T18:15:36.834Z,-1.33
2019-01-11T18:18:02.869Z,-1.31
2019-01-11T18:20:28.731Z,-1.31
2019-01-11T18:22:54.604Z,-1.29
2019-01-11T18:25:20.530Z,-1.31
2019-01-11T18:27:46.393Z,-1.32
2019-01-11T18:30:14.343Z,-1.36
2019-01-11T18:32:40.727Z,-1.26
2019-01-11T18:35:06.768Z,-1.23
2019-01-11T18:37:32.633Z,-1.23
2019-01-11T18:39:58.487Z,-1.22
2019-01-11T18:42:24.346Z,-1.26
2019-01-11T18:44:50.196Z,-1.26
2019-01-11T18:47:16.372Z,-1.28
2019-01-11T18:49:42.203Z,-1.27
2019-01-11T18:52:08.028Z,-1.24
2019-01-11T18:54:33.889Z,-1.17
2019-01-11T18:56:59.833Z,-1.25
2019-01-11T18:59:25.695Z,-1.22
2019-01-11T19:01:51.564Z,-1.21
2019-01-11T19:04:17.416Z,-1.23
2019-01-11T19:06:43.277Z,-1.16
2019-01-11T19:09:09.134Z,-1.16
2019-01-11T19:11:35.081Z,-1.08
2019-01-11T19:14:00.921Z,-1.08
2019-01-11T19:16:26.760Z,-1.06
2019-01-11T19:18:52.673Z,-1.07
2019-01-11T19:21:18.590Z,-1.04
2019-01-11T19:23:44.773Z,-1.09
2019-01-11T19:26:10.654Z,-1.12
2019-01-11T19:28:39.768Z,-1.09
2019-01-11T19:31:05.887Z,-1.08
2019-01-11T19:33:31.753Z,-1.07
2019-01-11T19:35:57.657Z,-1.03
2019-01-11T19:38:23.559Z,-1.01
2019-01-11T19:40:49.393Z,-0.96
2019-01-11T19:43:15.250Z,-1.04
2019-01-11T19:45:41.276Z,-0.99
2019-01-11T19:48:07.238Z,-0.99
2019-01-11T19:50:33.212Z,-0.94
2019-01-11T19:52:59.076Z,-0.99
2019-01-11T19:55:24.941Z,-0.96
2019-01-11T19:57:50.797Z,-0.92
2019-01-11T20:00:21.792Z,-0.90
2019-01-11T20:02:47.837Z,-0.92
2019-01-11T20:05:14.612Z,-0.87
2019-01-11T20:07:40.531Z,-0.87
2019-01-11T20:10:10.267Z,-0.92
2019-01-11T20:12:36.122Z,-1.01
2019-01-11T20:15:03.060Z,-0.93
2019-01-11T20:17:29.482Z,-0.99
2019-01-11T20:19:55.483Z,-0.88
2019-01-11T20:22:21.357Z,-0.90
2019-01-11T20:24:47.405Z,-0.90
2019-01-11T20:27:13.359Z,-0.98
2019-01-11T20:29:39.171Z,-1.06
2019-01-11T20:32:05.075Z,-0.94
2019-01-11T20:34:30.912Z,-0.81
2019-01-11T20:37:02.721Z,-0.94
2019-01-11T20:39:28.596Z,-0.81
2019-01-11T20:41:54.435Z,-0.76
2019-01-11T20:44:20.289Z,-0.80
2019-01-11T20:46:46.164Z,-0.80
2019-01-11T20:49:12.159Z,-0.77
2019-01-11T20:51:37.985Z,-0.77
2019-01-11T20:54:04.256Z,-0.75
2019-01-11T20:56:31.526Z,-0.73
2019-01-11T20:58:57.537Z,-0.76
2019-01-11T21:01:23.394Z,-0.80
2019-01-11T21:03:51.171Z,-0.79
2019-01-11T21:06:17.015Z,-0.68
2019-01-11T21:08:42.842Z,-0.67
2019-01-11T21:11:08.690Z,-0.66
2019-01-11T21:13:34.727Z,-0.70
2019-01-11T21:16:01.176Z,-0.64
2019-01-11T21:18:27.055Z,-0.70
2019-01-11T21:20:52.944Z,-0.65
2019-01-11T21:23:18.789Z,-0.65
2019-01-11T21:25:44.680Z,-0.61
2019-01-11T21:28:10.536Z,-0.65
2019-01-11T21:30:36.380Z,-0.64
2019-01-11T21:33:03.012Z,-0.73
2019-01-11T21:35:29.023Z,-0.54
2019-01-11T21:37:55.035Z,-0.60
2019-01-11T21:40:20.881Z,-0.52
2019-01-11T21:42:46.874Z,-0.50
2019-01-11T21:45:12.864Z,-0.50
2019-01-11T21:47:38.771Z,-0.58
2019-01-11T21:50:11.036Z,-0.77
2019-01-11T21:52:36.902Z,-0.89
2019-01-11T21:55:04.755Z,-0.62
2019-01-11T21:57:30.651Z,-0.50
2019-01-11T21:59:56.457Z,-0.43
2019-01-11T22:02:22.346Z,-0.44
2019-01-11T22:04:48.141Z,-0.41
2019-01-11T22:07:13.972Z,-0.40
2019-01-11T22:09:39.808Z,-0.37
2019-01-11T22:12:05.640Z,-0.34
2019-01-11T22:14:31.516Z,-0.47
2019-01-11T22:16:57.478Z,-0.40
2019-01-11T22:19:24.995Z,-0.43
2019-01-11T22:21:50.830Z,-0.37
2019-01-11T22:24:16.670Z,-0.36
2019-01-11T22:26:42.516Z,-0.46
2019-01-11T22:29:08.389Z,-0.42
2019-01-11T22:31:34.224Z,-0.46
2019-01-11T22:34:00.083Z,-0.47
2019-01-11T22:36:25.899Z,-0.42
2019-01-11T22:38:51.709Z,-0.35
2019-01-11T22:41:17.948Z,-0.38
2019-01-11T22:43:43.871Z,-0.32
2019-01-11T22:46:09.702Z,-0.25
2019-01-11T22:48:35.549Z,-0.24
2019-01-11T22:51:01.375Z,-0.22
2019-01-11T22:53:27.204Z,-0.17
2019-01-11T22:55:53.049Z,-0.13
2019-01-11T22:58:18.891Z,-0.16
2019-01-11T23:00:51.363Z,-0.14
2019-01-11T23:03:24.014Z,-0.22
2019-01-11T23:05:53.954Z,-0.11
2019-01-11T23:08:19.801Z,-0.06
2019-01-11T23:11:01.563Z,-0.11
2019-01-11T23:13:27.406Z,-0.13
2019-01-11T23:15:53.439Z,-0.03
2019-01-11T23:18:19.380Z,-0.01
2019-01-11T23:20:45.413Z,-0.02
2019-01-11T23:23:11.276Z,0.06
2019-01-11T23:25:37.087Z,-0.02
2019-01-11T23:28:03.049Z,0.03
2019-01-11T23:30:28.909Z,0.09
2019-01-11T23:32:54.734Z,0.11
2019-01-11T23:35:20.552Z,0.15
2019-01-11T23:37:46.389Z,0.18
2019-01-11T23:40:12.709Z,0.21
2019-01-11T23:42:38.566Z,0.22
2019-01-11T23:45:07.700Z,0.21
2019-01-11T23:47:33.530Z,0.19
2019-01-11T23:49:59.392Z,0.22
2019-01-11T23:52:27.690Z,0.22
2019-01-11T23:54:53.529Z,0.22
2019-01-11T23:57:19.367Z,0.24
2019-01-11T23:59:45.211Z,0.29
